createdAt,value
2023-02-01T00:01:09.459Z,98293.91
2023-02-01T00:06:11.231Z,98285.98
2023-02-01T00:11:13.601Z,98273.61
2023-02-01T00:16:21.238Z,98262.77
2023-02-01T00:21:23.446Z,98255.27
2023-02-01T00:26:33.048Z,98261.66
2023-02-01T00:31:36.892Z,98263.45
2023-02-01T00:36:39.047Z,98252.02
2023-02-01T00:41:41.693Z,98259.34
2023-02-01T00:46:43.559Z,98264.83
2023-02-01T00:51:45.313Z,98266.23
2023-02-01T00:56:47.070Z,98286.80
2023-02-01T01:01:48.921Z,98354.55
2023-02-01T01:06:50.871Z,98383.98
2023-02-01T01:11:53.793Z,98389.02
2023-02-01T01:16:55.886Z,98392.06
2023-02-01T01:21:57.620Z,98393.92
2023-02-01T01:26:59.303Z,98414.90
2023-02-01T01:32:01.490Z,98407.52
2023-02-01T01:37:03.212Z,98407.08
2023-02-01T01:42:05.000Z,98410.79
2023-02-01T01:47:07.345Z,98398.73
2023-02-01T01:52:09.782Z,98397.85
2023-02-01T01:57:35.134Z,98390.66
2023-02-01T02:02:39.657Z,98361.48
2023-02-01T02:07:46.509Z,98356.36
2023-02-01T02:12:49.679Z,98358.91
2023-02-01T02:18:11.093Z,98358.77
2023-02-01T02:23:44.717Z,98356.79
2023-02-01T02:29:16.826Z,98360.06
2023-02-01T02:34:59.544Z,98371.05
2023-02-01T02:40:10.637Z,98373.41
2023-02-01T02:45:34.111Z,98361.66
2023-02-01T02:51:01.466Z,98359.51
2023-02-01T02:56:26.572Z,98351.85
2023-02-01T03:01:49.563Z,98348.65
2023-02-01T03:06:53.324Z,98354.69
2023-02-01T03:12:20.742Z,98366.67
2023-02-01T03:17:28.829Z,98364.61
2023-02-01T03:22:33.801Z,98363.98
2023-02-01T03:27:42.837Z,98358.55
2023-02-01T03:33:02.669Z,98382.11
2023-02-01T03:38:29.341Z,98383.80
2023-02-01T03:43:38.426Z,98399.73
2023-02-01T03:48:41.541Z,98407.79
2023-02-01T03:53:47.637Z,98400.23
2023-02-01T03:59:00.074Z,98391.41
2023-02-01T04:04:05.064Z,98385.84
2023-02-01T04:09:07.558Z,98380.02
2023-02-01T04:14:09.681Z,98376.09
2023-02-01T04:19:11.372Z,98378.38
2023-02-01T04:24:13.341Z,98374.56
2023-02-01T04:29:15.068Z,98365.53
2023-02-01T04:34:17.023Z,98362.20
2023-02-01T04:39:19.008Z,98361.16
2023-02-01T04:44:20.884Z,98359.98
2023-02-01T04:49:22.676Z,98363.38
2023-02-01T04:54:24.662Z,98371.52
2023-02-01T04:59:27.061Z,98357.73
2023-02-01T05:04:28.787Z,98359.16
2023-02-01T05:09:30.480Z,98364.24
2023-02-01T05:14:32.214Z,98363.65
2023-02-01T05:19:33.981Z,98361.63
2023-02-01T05:24:35.812Z,98363.23
2023-02-01T05:29:37.537Z,98354.98
2023-02-01T05:34:39.310Z,98351.08
2023-02-01T05:39:40.996Z,98351.64
2023-02-01T05:44:43.270Z,98349.63
2023-02-01T05:49:44.974Z,98337.95
2023-02-01T05:54:50.618Z,98335.54
2023-02-01T05:59:52.385Z,98340.67
2023-02-01T06:04:54.119Z,98346.11
2023-02-01T06:09:55.826Z,98349.71
2023-02-01T06:15:00.225Z,98355.45
2023-02-01T06:20:02.169Z,98358.02
2023-02-01T06:25:06.339Z,98357.98
2023-02-01T06:30:08.941Z,98361.58
2023-02-01T06:35:17.384Z,98363.59
2023-02-01T06:40:19.214Z,98355.11
2023-02-01T06:45:21.707Z,98349.53
2023-02-01T06:50:24.254Z,98341.30
2023-02-01T06:55:26.235Z,98333.29
2023-02-01T07:00:27.898Z,98332.91
2023-02-01T07:05:29.681Z,98331.77
2023-02-01T07:10:31.467Z,98333.85
2023-02-01T07:15:35.288Z,98330.82
2023-02-01T07:20:36.970Z,98332.25
2023-02-01T07:25:38.786Z,98330.30
2023-02-01T07:30:40.899Z,98338.11
2023-02-01T07:35:42.684Z,98342.38
2023-02-01T07:40:45.027Z,98341.11
2023-02-01T07:45:53.131Z,98344.23
2023-02-01T07:51:03.916Z,98340.95
2023-02-01T07:56:12.086Z,98336.86
2023-02-01T08:01:21.004Z,98333.90
2023-02-01T08:06:24.480Z,98332.40
2023-02-01T08:11:26.546Z,98333.63
2023-02-01T08:16:28.526Z,98336.11
2023-02-01T08:21:39.658Z,98339.59
2023-02-01T08:26:41.799Z,98339.02
2023-02-01T08:31:44.326Z,98338.83
2023-02-01T08:36:46.972Z,98323.02
2023-02-01T08:42:08.633Z,98345.17
2023-02-01T08:47:10.345Z,98337.91
2023-02-01T08:52:16.203Z,98329.99
2023-02-01T08:57:19.013Z,98332.60
2023-02-01T09:02:21.065Z,98337.86
2023-02-01T09:07:22.796Z,98338.38
2023-02-01T09:12:24.533Z,98334.39
2023-02-01T09:17:30.453Z,98331.61
2023-02-01T09:22:32.563Z,98321.98
2023-02-01T09:27:34.834Z,98322.31
2023-02-01T09:32:36.996Z,98312.73
2023-02-01T09:37:38.807Z,98311.22
2023-02-01T09:42:54.233Z,98307.36
2023-02-01T09:48:01.629Z,98305.96
2023-02-01T09:53:08.009Z,98296.94
2023-02-01T09:58:17.600Z,98292.97
2023-02-01T10:03:19.601Z,98290.66
2023-02-01T10:08:28.136Z,98277.80
2023-02-01T10:13:38.629Z,98281.98
2023-02-01T10:18:49.384Z,98261.08
2023-02-01T10:24:18.060Z,98278.48
2023-02-01T10:29:23.867Z,98274.63
2023-02-01T10:34:32.766Z,98269.48
2023-02-01T10:39:34.568Z,98265.27
2023-02-01T10:44:41.247Z,98261.95
2023-02-01T10:50:18.604Z,98265.39
2023-02-01T10:55:40.784Z,98253.19
2023-02-01T11:00:54.694Z,98250.15
2023-02-01T11:05:57.018Z,98256.23
2023-02-01T11:11:06.698Z,98232.52
2023-02-01T11:16:13.441Z,98256.70
2023-02-01T11:21:15.468Z,98247.25
2023-02-01T11:26:24.690Z,98238.45
2023-02-01T11:31:29.075Z,98228.86
2023-02-01T11:36:32.681Z,98225.63
2023-02-01T11:41:34.549Z,98221.20
2023-02-01T11:46:36.603Z,98214.74
2023-02-01T11:51:51.181Z,98208.14
2023-02-01T11:57:18.262Z,98198.12
2023-02-01T12:02:54.316Z,98192.13
2023-02-01T12:08:21.061Z,98186.16
2023-02-01T12:13:34.944Z,98179.85
2023-02-01T12:18:47.843Z,98177.43
2023-02-01T12:24:27.954Z,98174.88
2023-02-01T12:29:43.782Z,98168.94
2023-02-01T12:34:51.330Z,98165.33
2023-02-01T12:40:14.923Z,98154.25
2023-02-01T12:45:32.579Z,98149.85
2023-02-01T12:50:44.569Z,98138.41
2023-02-01T12:55:53.215Z,98124.92
2023-02-01T13:01:06.239Z,98121.88
2023-02-01T13:06:27.312Z,98110.83
2023-02-01T13:11:32.461Z,98103.30
2023-02-01T13:16:43.900Z,98101.87
2023-02-01T13:21:54.159Z,98108.46
2023-02-01T13:26:56.626Z,98111.80
2023-02-01T13:32:19.833Z,98110.36
2023-02-01T13:37:57.396Z,98100.48
2023-02-01T13:43:10.682Z,98143.64
2023-02-01T13:48:22.824Z,98151.68
2023-02-01T13:53:30.411Z,98160.55
2023-02-01T13:58:40.962Z,98159.05
2023-02-01T14:03:49.957Z,98160.14
2023-02-01T14:09:31.406Z,98163.93
2023-02-01T14:14:33.025Z,98164.55
2023-02-01T14:19:35.544Z,98163.99
2023-02-01T14:24:38.168Z,98154.41
2023-02-01T14:29:43.238Z,98144.93
2023-02-01T14:34:47.886Z,98145.62
2023-02-01T14:39:57.875Z,98150.95
2023-02-01T14:45:18.213Z,98147.42
2023-02-01T14:50:34.047Z,98140.86
2023-02-01T14:55:41.546Z,98151.36
2023-02-01T15:00:50.221Z,98151.60
2023-02-01T15:06:01.761Z,98149.17
2023-02-01T15:11:11.927Z,98155.09
2023-02-01T15:16:16.194Z,98169.23
2023-02-01T15:21:28.190Z,98183.36
2023-02-01T15:26:33.472Z,98187.13
2023-02-01T15:31:39.756Z,98189.48
2023-02-01T15:36:56.581Z,98190.06
2023-02-01T15:42:12.534Z,98189.22
2023-02-01T15:47:18.716Z,98187.30
2023-02-01T15:52:23.432Z,98195.15
2023-02-01T15:57:44.433Z,98196.52
2023-02-01T16:02:59.081Z,98202.21
2023-02-01T16:08:06.323Z,98203.58
2023-02-01T16:13:08.254Z,98204.64
2023-02-01T16:18:11.783Z,98203.87
2023-02-01T16:23:13.659Z,98202.17
2023-02-01T16:28:15.477Z,98201.53
2023-02-01T16:33:22.759Z,98200.91
2023-02-01T16:38:24.739Z,98207.42
2023-02-01T16:43:27.316Z,98215.60
2023-02-01T16:48:36.281Z,98228.11
2023-02-01T16:53:53.185Z,98210.52
2023-02-01T16:58:56.150Z,98248.07
2023-02-01T17:03:58.802Z,98243.73
2023-02-01T17:09:03.357Z,98239.13
2023-02-01T17:14:19.215Z,98236.27
2023-02-01T17:19:26.104Z,98240.99
2023-02-01T17:24:46.543Z,98234.57
2023-02-01T17:29:50.002Z,98233.08
2023-02-01T17:34:52.396Z,98231.67
2023-02-01T17:39:56.916Z,98230.50
2023-02-01T17:45:14.683Z,98235.56
2023-02-01T17:50:16.862Z,98234.58
2023-02-01T17:55:23.470Z,98226.29
2023-02-01T18:00:25.568Z,98220.98
2023-02-01T18:05:51.032Z,98218.63
2023-02-01T18:10:55.806Z,98211.20
2023-02-01T18:15:59.851Z,98201.33
2023-02-01T18:21:01.696Z,98202.09
2023-02-01T18:26:04.386Z,98206.09
2023-02-01T18:31:06.240Z,98204.15
2023-02-01T18:36:12.800Z,98185.15
2023-02-01T18:41:21.762Z,98174.73
2023-02-01T18:46:23.681Z,98172.52
2023-02-01T18:51:25.439Z,98168.21
2023-02-01T18:56:27.172Z,98175.68
2023-02-01T19:01:28.946Z,98179.40
2023-02-01T19:06:30.639Z,98171.05
2023-02-01T19:11:32.428Z,98165.15
2023-02-01T19:16:36.047Z,98154.18
2023-02-01T19:21:37.737Z,98146.84
2023-02-01T19:26:41.535Z,98138.48
2023-02-01T19:31:44.422Z,98130.92
2023-02-01T19:36:46.144Z,98121.29
2023-02-01T19:41:48.313Z,98112.91
2023-02-01T19:46:50.250Z,98104.45
2023-02-01T19:51:52.167Z,98088.58
2023-02-01T19:56:53.961Z,98082.08
2023-02-01T20:01:55.138Z,98065.57
2023-02-01T20:06:57.359Z,98034.30
2023-02-01T20:12:00.717Z,98056.67
2023-02-01T20:17:03.002Z,98043.61
2023-02-01T20:22:05.055Z,98042.66
2023-02-01T20:27:10.734Z,98058.30
2023-02-01T20:32:12.463Z,98061.33
2023-02-01T20:37:14.418Z,98057.31
2023-02-01T20:42:16.486Z,98060.04
2023-02-01T20:47:18.214Z,98053.30
2023-02-01T20:52:20.098Z,98045.65
2023-02-01T20:57:22.012Z,98031.69
2023-02-01T21:02:24.311Z,98023.30
2023-02-01T21:07:26.470Z,98012.45
2023-02-01T21:12:28.325Z,98000.07
2023-02-01T21:17:31.482Z,97990.71
2023-02-01T21:22:33.285Z,97989.26
2023-02-01T21:27:35.108Z,97984.21
2023-02-01T21:32:37.347Z,97982.79
2023-02-01T21:37:39.097Z,97983.48
2023-02-01T21:42:43.714Z,97987.80
2023-02-01T21:47:45.402Z,97983.30
2023-02-01T21:52:47.178Z,97985.53
2023-02-01T21:57:51.661Z,97979.70
2023-02-01T22:02:53.490Z,97980.89
2023-02-01T22:07:55.615Z,97983.64
2023-02-01T22:13:03.323Z,97983.77
2023-02-01T22:18:05.039Z,97986.67
2023-02-01T22:23:06.767Z,97981.59
2023-02-01T22:28:31.860Z,97987.22
2023-02-01T22:33:30.522Z,97996.38
2023-02-01T22:38:34.197Z,98002.67
2023-02-01T22:43:36.163Z,98013.58
2023-02-01T22:48:39.899Z,98017.64
2023-02-01T22:53:41.632Z,98031.50
2023-02-01T22:58:43.423Z,98043.31
2023-02-01T23:03:45.134Z,98042.15
2023-02-01T23:08:47.009Z,98035.55
2023-02-01T23:13:48.815Z,98030.25
2023-02-01T23:18:50.590Z,98035.03
2023-02-01T23:23:54.986Z,98038.68
2023-02-01T23:28:57.958Z,98035.05
2023-02-01T23:34:01.996Z,98034.20
2023-02-01T23:39:03.761Z,98039.41
2023-02-01T23:44:05.718Z,98043.56
2023-02-01T23:49:08.744Z,98044.14
2023-02-01T23:54:11.803Z,98056.20
2023-02-01T23:59:26.499Z,98044.70
